sensor_id;sensor_type;location;lat;lon;timestamp;temperature;humidity
25214;DHT22;13160;51.834;4.706;2023-05-09T00:00:02;16.30;99.90
25214;DHT22;13160;51.834;4.706;2023-05-09T00:02:32;16.30;99.90
25214;DHT22;13160;51.834;4.706;2023-05-09T00:05:02;16.30;99.90
25214;DHT22;13160;51.834;4.706;2023-05-09T00:07:30;16.20;99.90
25214;DHT22;13160;51.834;4.706;2023-05-09T00:09:59;16.20;99.90
25214;DHT22;13160;51.834;4.706;2023-05-09T00:12:28;16.20;99.90
25214;DHT22;13160;51.834;4.706;2023-05-09T00:14:56;16.20;99.90
25214;DHT22;13160;51.834;4.706;2023-05-09T00:17:26;16.20;99.90
25214;DHT22;13160;51.834;4.706;2023-05-09T00:19:55;16.20;99.90
25214;DHT22;13160;51.834;4.706;2023-05-09T00:22:23;16.20;99.90
25214;DHT22;13160;51.834;4.706;2023-05-09T00:24:51;16.10;99.90
25214;DHT22;13160;51.834;4.706;2023-05-09T00:27:21;16.10;99.90
25214;DHT22;13160;51.834;4.706;2023-05-09T00:29:49;16.10;99.90
25214;DHT22;13160;51.834;4.706;2023-05-09T00:32:17;16.10;99.90
25214;DHT22;13160;51.834;4.706;2023-05-09T00:34:48;16.10;99.90
25214;DHT22;13160;51.834;4.706;2023-05-09T00:37:17;16.10;99.90
25214;DHT22;13160;51.834;4.706;2023-05-09T00:39:46;16.10;99.90
25214;DHT22;13160;51.834;4.706;2023-05-09T00:42:15;16.10;99.90
25214;DHT22;13160;51.834;4.706;2023-05-09T00:44:43;16.10;99.90
25214;DHT22;13160;51.834;4.706;2023-05-09T00:47:12;16.00;99.90
25214;DHT22;13160;51.834;4.706;2023-05-09T00:49:40;16.00;99.90
25214;DHT22;13160;51.834;4.706;2023-05-09T00:52:10;16.00;99.90
25214;DHT22;13160;51.834;4.706;2023-05-09T00:54:38;16.00;99.90
25214;DHT22;13160;51.834;4.706;2023-05-09T00:57:07;16.00;99.90
25214;DHT22;13160;51.834;4.706;2023-05-09T00:59:35;16.00;99.90
25214;DHT22;13160;51.834;4.706;2023-05-09T01:02:04;16.00;99.90
25214;DHT22;13160;51.834;4.706;2023-05-09T01:04:32;16.00;99.90
25214;DHT22;13160;51.834;4.706;2023-05-09T01:07:04;15.90;99.90
25214;DHT22;13160;51.834;4.706;2023-05-09T01:09:44;16.00;99.90
25214;DHT22;13160;51.834;4.706;2023-05-09T01:12:21;16.00;99.90
25214;DHT22;13160;51.834;4.706;2023-05-09T01:15:00;16.00;99.90
25214;DHT22;13160;51.834;4.706;2023-05-09T01:17:37;16.00;99.90
25214;DHT22;13160;51.834;4.706;2023-05-09T01:20:16;16.00;99.90
25214;DHT22;13160;51.834;4.706;2023-05-09T01:22:54;16.00;99.90
25214;DHT22;13160;51.834;4.706;2023-05-09T01:25:37;16.00;99.90
25214;DHT22;13160;51.834;4.706;2023-05-09T01:28:33;16.00;99.90
25214;DHT22;13160;51.834;4.706;2023-05-09T01:31:07;16.00;99.90
25214;DHT22;13160;51.834;4.706;2023-05-09T01:33:39;15.90;99.90
25214;DHT22;13160;51.834;4.706;2023-05-09T01:36:13;15.90;99.90
25214;DHT22;13160;51.834;4.706;2023-05-09T01:38:44;15.90;99.90
25214;DHT22;13160;51.834;4.706;2023-05-09T01:41:17;15.90;99.90
25214;DHT22;13160;51.834;4.706;2023-05-09T01:43:48;15.90;99.90
25214;DHT22;13160;51.834;4.706;2023-05-09T01:46:21;15.90;99.90
25214;DHT22;13160;51.834;4.706;2023-05-09T01:48:50;15.90;99.90
25214;DHT22;13160;51.834;4.706;2023-05-09T01:51:19;15.90;99.90
25214;DHT22;13160;51.834;4.706;2023-05-09T01:53:49;15.90;99.90
25214;DHT22;13160;51.834;4.706;2023-05-09T01:56:20;15.90;99.90
25214;DHT22;13160;51.834;4.706;2023-05-09T01:58:50;15.90;99.90
25214;DHT22;13160;51.834;4.706;2023-05-09T02:01:21;15.90;99.90
25214;DHT22;13160;51.834;4.706;2023-05-09T02:03:53;15.90;99.90
25214;DHT22;13160;51.834;4.706;2023-05-09T02:06:23;15.90;99.90
25214;DHT22;13160;51.834;4.706;2023-05-09T02:08:52;15.90;99.90
25214;DHT22;13160;51.834;4.706;2023-05-09T02:11:20;15.90;99.90
25214;DHT22;13160;51.834;4.706;2023-05-09T02:13:49;15.80;99.90
25214;DHT22;13160;51.834;4.706;2023-05-09T02:16:17;15.80;99.90
25214;DHT22;13160;51.834;4.706;2023-05-09T02:18:48;15.80;99.90
25214;DHT22;13160;51.834;4.706;2023-05-09T02:21:18;15.80;99.90
25214;DHT22;13160;51.834;4.706;2023-05-09T02:23:47;15.80;99.90
25214;DHT22;13160;51.834;4.706;2023-05-09T02:26:16;15.80;99.90
25214;DHT22;13160;51.834;4.706;2023-05-09T02:28:45;15.80;99.90
25214;DHT22;13160;51.834;4.706;2023-05-09T02:31:15;15.80;99.90
25214;DHT22;13160;51.834;4.706;2023-05-09T02:33:48;15.80;99.90
25214;DHT22;13160;51.834;4.706;2023-05-09T02:36:18;15.80;99.90
25214;DHT22;13160;51.834;4.706;2023-05-09T02:38:47;15.80;99.90
25214;DHT22;13160;51.834;4.706;2023-05-09T02:41:16;15.80;99.90
25214;DHT22;13160;51.834;4.706;2023-05-09T02:43:45;15.70;99.90
25214;DHT22;13160;51.834;4.706;2023-05-09T02:46:13;15.70;99.90
25214;DHT22;13160;51.834;4.706;2023-05-09T02:48:42;15.70;99.90
25214;DHT22;13160;51.834;4.706;2023-05-09T02:51:12;15.70;99.90
25214;DHT22;13160;51.834;4.706;2023-05-09T02:53:40;15.70;99.90
25214;DHT22;13160;51.834;4.706;2023-05-09T02:56:09;15.80;99.90
25214;DHT22;13160;51.834;4.706;2023-05-09T02:58:37;15.70;99.90
25214;DHT22;13160;51.834;4.706;2023-05-09T03:01:06;15.70;99.90
25214;DHT22;13160;51.834;4.706;2023-05-09T03:03:34;15.70;99.90
25214;DHT22;13160;51.834;4.706;2023-05-09T03:06:07;15.70;99.90
25214;DHT22;13160;51.834;4.706;2023-05-09T03:08:36;15.70;99.90
25214;DHT22;13160;51.834;4.706;2023-05-09T03:11:05;15.70;99.90
25214;DHT22;13160;51.834;4.706;2023-05-09T03:13:33;15.70;99.90
25214;DHT22;13160;51.834;4.706;2023-05-09T03:16:02;15.70;99.90
25214;DHT22;13160;51.834;4.706;2023-05-09T03:18:31;15.70;99.90
25214;DHT22;13160;51.834;4.706;2023-05-09T03:20:59;15.70;99.90
25214;DHT22;13160;51.834;4.706;2023-05-09T03:27:29;15.70;99.90
25214;DHT22;13160;51.834;4.706;2023-05-09T03:29:57;15.60;99.90
25214;DHT22;13160;51.834;4.706;2023-05-09T03:32:26;15.60;99.90
25214;DHT22;13160;51.834;4.706;2023-05-09T03:34:54;15.60;99.90
25214;DHT22;13160;51.834;4.706;2023-05-09T03:37:23;15.60;99.90
25214;DHT22;13160;51.834;4.706;2023-05-09T03:39:53;15.60;99.90
25214;DHT22;13160;51.834;4.706;2023-05-09T03:42:21;15.60;99.90
25214;DHT22;13160;51.834;4.706;2023-05-09T03:44:51;15.60;99.90
25214;DHT22;13160;51.834;4.706;2023-05-09T03:47:20;15.60;99.90
25214;DHT22;13160;51.834;4.706;2023-05-09T03:49:49;15.60;99.90
25214;DHT22;13160;51.834;4.706;2023-05-09T03:52:19;15.60;99.90
25214;DHT22;13160;51.834;4.706;2023-05-09T03:54:47;15.60;99.90
25214;DHT22;13160;51.834;4.706;2023-05-09T03:57:16;15.60;99.90
25214;DHT22;13160;51.834;4.706;2023-05-09T03:59:44;15.60;99.90
25214;DHT22;13160;51.834;4.706;2023-05-09T04:02:14;15.60;99.90
25214;DHT22;13160;51.834;4.706;2023-05-09T04:04:42;15.60;99.90
25214;DHT22;13160;51.834;4.706;2023-05-09T04:07:12;15.60;99.90
25214;DHT22;13160;51.834;4.706;2023-05-09T04:09:41;15.60;99.90
25214;DHT22;13160;51.834;4.706;2023-05-09T04:12:09;15.60;99.90
25214;DHT22;13160;51.834;4.706;2023-05-09T04:14:38;15.60;99.90
25214;DHT22;13160;51.834;4.706;2023-05-09T04:17:06;15.60;99.90
25214;DHT22;13160;51.834;4.706;2023-05-09T04:19:36;15.60;99.90
25214;DHT22;13160;51.834;4.706;2023-05-09T04:22:04;15.60;99.90
25214;DHT22;13160;51.834;4.706;2023-05-09T04:24:33;15.60;99.90
25214;DHT22;13160;51.834;4.706;2023-05-09T04:27:01;15.60;99.90
25214;DHT22;13160;51.834;4.706;2023-05-09T04:29:30;15.60;99.90
25214;DHT22;13160;51.834;4.706;2023-05-09T04:31:58;15.60;99.90
25214;DHT22;13160;51.834;4.706;2023-05-09T04:34:27;15.60;99.90
25214;DHT22;13160;51.834;4.706;2023-05-09T04:36:57;15.60;99.90
25214;DHT22;13160;51.834;4.706;2023-05-09T04:39:26;15.60;99.90
25214;DHT22;13160;51.834;4.706;2023-05-09T04:41:54;15.60;99.90
25214;DHT22;13160;51.834;4.706;2023-05-09T04:44:22;15.60;99.90
25214;DHT22;13160;51.834;4.706;2023-05-09T04:46:51;15.60;99.90
25214;DHT22;13160;51.834;4.706;2023-05-09T04:49:20;15.70;99.90
25214;DHT22;13160;51.834;4.706;2023-05-09T04:51:49;15.60;99.90
25214;DHT22;13160;51.834;4.706;2023-05-09T04:54:19;15.70;99.90
25214;DHT22;13160;51.834;4.706;2023-05-09T04:56:48;15.70;99.90
25214;DHT22;13160;51.834;4.706;2023-05-09T04:59:16;15.70;99.90
25214;DHT22;13160;51.834;4.706;2023-05-09T05:01:44;15.70;99.90
25214;DHT22;13160;51.834;4.706;2023-05-09T05:04:15;15.70;99.90
25214;DHT22;13160;51.834;4.706;2023-05-09T05:06:44;15.70;99.90
25214;DHT22;13160;51.834;4.706;2023-05-09T05:09:14;15.70;99.90
25214;DHT22;13160;51.834;4.706;2023-05-09T05:11:44;15.70;99.90
25214;DHT22;13160;51.834;4.706;2023-05-09T05:14:26;15.70;99.90
25214;DHT22;13160;51.834;4.706;2023-05-09T05:16:55;15.70;99.90
25214;DHT22;13160;51.834;4.706;2023-05-09T05:19:23;15.70;99.90
25214;DHT22;13160;51.834;4.706;2023-05-09T05:21:51;15.70;99.90
25214;DHT22;13160;51.834;4.706;2023-05-09T05:24:20;15.70;99.90
25214;DHT22;13160;51.834;4.706;2023-05-09T05:26:49;15.70;99.90
25214;DHT22;13160;51.834;4.706;2023-05-09T05:29:18;15.70;99.90
25214;DHT22;13160;51.834;4.706;2023-05-09T05:31:47;15.70;99.90
25214;DHT22;13160;51.834;4.706;2023-05-09T05:34:15;15.70;99.90
25214;DHT22;13160;51.834;4.706;2023-05-09T05:36:44;15.60;99.90
25214;DHT22;13160;51.834;4.706;2023-05-09T05:39:13;15.60;99.90
25214;DHT22;13160;51.834;4.706;2023-05-09T05:41:42;15.60;99.90
25214;DHT22;13160;51.834;4.706;2023-05-09T05:44:11;15.60;99.90
25214;DHT22;13160;51.834;4.706;2023-05-09T05:46:40;15.70;99.90
25214;DHT22;13160;51.834;4.706;2023-05-09T05:49:08;15.70;99.90
25214;DHT22;13160;51.834;4.706;2023-05-09T05:51:36;15.60;99.90
25214;DHT22;13160;51.834;4.706;2023-05-09T05:54:05;15.60;99.90
25214;DHT22;13160;51.834;4.706;2023-05-09T05:56:33;15.60;99.90
25214;DHT22;13160;51.834;4.706;2023-05-09T05:59:01;15.60;99.90
25214;DHT22;13160;51.834;4.706;2023-05-09T06:01:31;15.60;99.90
25214;DHT22;13160;51.834;4.706;2023-05-09T06:04:00;15.60;99.90
25214;DHT22;13160;51.834;4.706;2023-05-09T06:06:28;15.70;99.90
25214;DHT22;13160;51.834;4.706;2023-05-09T06:08:56;15.60;99.90
25214;DHT22;13160;51.834;4.706;2023-05-09T06:11:25;15.60;99.90
25214;DHT22;13160;51.834;4.706;2023-05-09T06:13:53;15.60;99.90
25214;DHT22;13160;51.834;4.706;2023-05-09T06:16:22;15.60;99.90
25214;DHT22;13160;51.834;4.706;2023-05-09T06:18:51;15.60;99.90
25214;DHT22;13160;51.834;4.706;2023-05-09T06:21:22;15.70;99.90
25214;DHT22;13160;51.834;4.706;2023-05-09T06:23:50;15.70;99.90
25214;DHT22;13160;51.834;4.706;2023-05-09T06:26:21;15.70;99.90
25214;DHT22;13160;51.834;4.706;2023-05-09T06:28:49;15.70;99.90
25214;DHT22;13160;51.834;4.706;2023-05-09T06:31:18;15.70;99.90
25214;DHT22;13160;51.834;4.706;2023-05-09T06:33:47;15.70;99.90
25214;DHT22;13160;51.834;4.706;2023-05-09T06:36:17;15.70;99.90
25214;DHT22;13160;51.834;4.706;2023-05-09T06:38:45;15.70;99.90
25214;DHT22;13160;51.834;4.706;2023-05-09T06:41:14;15.70;99.90
25214;DHT22;13160;51.834;4.706;2023-05-09T06:43:43;15.70;99.90
25214;DHT22;13160;51.834;4.706;2023-05-09T06:46:11;15.70;99.90
25214;DHT22;13160;51.834;4.706;2023-05-09T06:48:40;15.70;99.90
25214;DHT22;13160;51.834;4.706;2023-05-09T06:51:08;15.70;99.90
25214;DHT22;13160;51.834;4.706;2023-05-09T06:53:38;15.70;99.90
25214;DHT22;13160;51.834;4.706;2023-05-09T06:56:07;15.60;99.90
25214;DHT22;13160;51.834;4.706;2023-05-09T06:58:35;15.60;99.90
25214;DHT22;13160;51.834;4.706;2023-05-09T07:01:04;15.60;99.90
25214;DHT22;13160;51.834;4.706;2023-05-09T07:03:33;15.60;99.90
25214;DHT22;13160;51.834;4.706;2023-05-09T07:06:01;15.60;99.90
25214;DHT22;13160;51.834;4.706;2023-05-09T07:08:30;15.70;99.90
25214;DHT22;13160;51.834;4.706;2023-05-09T07:11:00;15.70;99.90
25214;DHT22;13160;51.834;4.706;2023-05-09T07:13:28;15.70;99.90
25214;DHT22;13160;51.834;4.706;2023-05-09T07:15:56;15.70;99.90
25214;DHT22;13160;51.834;4.706;2023-05-09T07:18:25;15.70;99.90
25214;DHT22;13160;51.834;4.706;2023-05-09T07:20:53;15.70;99.90
25214;DHT22;13160;51.834;4.706;2023-05-09T07:23:22;15.70;99.90
25214;DHT22;13160;51.834;4.706;2023-05-09T07:25:55;15.80;99.90
25214;DHT22;13160;51.834;4.706;2023-05-09T07:28:25;15.80;99.90
25214;DHT22;13160;51.834;4.706;2023-05-09T07:30:54;15.80;99.90
25214;DHT22;13160;51.834;4.706;2023-05-09T07:33:23;15.80;99.90
25214;DHT22;13160;51.834;4.706;2023-05-09T07:35:51;15.90;99.90
25214;DHT22;13160;51.834;4.706;2023-05-09T07:38:19;15.90;99.90
25214;DHT22;13160;51.834;4.706;2023-05-09T07:40:48;15.90;99.90
25214;DHT22;13160;51.834;4.706;2023-05-09T07:43:16;15.90;99.90
25214;DHT22;13160;51.834;4.706;2023-05-09T07:45:46;15.90;99.90
25214;DHT22;13160;51.834;4.706;2023-05-09T07:48:15;15.90;99.90
25214;DHT22;13160;51.834;4.706;2023-05-09T07:50:43;16.00;99.90
25214;DHT22;13160;51.834;4.706;2023-05-09T07:53:11;16.00;99.90
25214;DHT22;13160;51.834;4.706;2023-05-09T07:55:39;16.00;99.90
25214;DHT22;13160;51.834;4.706;2023-05-09T07:58:08;16.00;99.90
25214;DHT22;13160;51.834;4.706;2023-05-09T08:00:36;16.00;99.90
25214;DHT22;13160;51.834;4.706;2023-05-09T08:03:06;16.00;99.90
25214;DHT22;13160;51.834;4.706;2023-05-09T08:05:35;16.00;99.90
25214;DHT22;13160;51.834;4.706;2023-05-09T08:08:03;16.00;99.90
25214;DHT22;13160;51.834;4.706;2023-05-09T08:10:31;16.00;99.90
25214;DHT22;13160;51.834;4.706;2023-05-09T08:13:00;16.00;99.90
25214;DHT22;13160;51.834;4.706;2023-05-09T08:15:28;16.00;99.90
25214;DHT22;13160;51.834;4.706;2023-05-09T08:17:56;16.00;99.90
25214;DHT22;13160;51.834;4.706;2023-05-09T08:20:27;16.00;99.90
25214;DHT22;13160;51.834;4.706;2023-05-09T08:22:57;16.00;99.90
25214;DHT22;13160;51.834;4.706;2023-05-09T08:25:25;16.00;99.90
25214;DHT22;13160;51.834;4.706;2023-05-09T08:27:54;16.00;99.90
25214;DHT22;13160;51.834;4.706;2023-05-09T08:30:22;16.00;99.90
25214;DHT22;13160;51.834;4.706;2023-05-09T08:32:51;16.00;99.90
25214;DHT22;13160;51.834;4.706;2023-05-09T08:35:19;16.00;99.90
25214;DHT22;13160;51.834;4.706;2023-05-09T08:37:49;16.00;99.90
25214;DHT22;13160;51.834;4.706;2023-05-09T08:40:18;16.00;99.90
25214;DHT22;13160;51.834;4.706;2023-05-09T08:42:47;16.00;99.90
25214;DHT22;13160;51.834;4.706;2023-05-09T08:45:24;16.00;99.90
25214;DHT22;13160;51.834;4.706;2023-05-09T08:47:57;16.00;99.90
25214;DHT22;13160;51.834;4.706;2023-05-09T08:50:26;16.00;99.90
25214;DHT22;13160;51.834;4.706;2023-05-09T08:52:56;16.00;99.90
25214;DHT22;13160;51.834;4.706;2023-05-09T08:55:25;16.00;99.90
25214;DHT22;13160;51.834;4.706;2023-05-09T08:57:54;16.00;99.90
25214;DHT22;13160;51.834;4.706;2023-05-09T09:00:22;16.00;99.90
25214;DHT22;13160;51.834;4.706;2023-05-09T09:02:53;16.00;99.90
25214;DHT22;13160;51.834;4.706;2023-05-09T09:05:22;16.00;99.90
25214;DHT22;13160;51.834;4.706;2023-05-09T09:08:08;16.00;99.90
25214;DHT22;13160;51.834;4.706;2023-05-09T09:10:39;16.10;99.90
25214;DHT22;13160;51.834;4.706;2023-05-09T09:13:11;16.10;99.90
25214;DHT22;13160;51.834;4.706;2023-05-09T09:15:43;16.10;99.90
25214;DHT22;13160;51.834;4.706;2023-05-09T09:18:19;16.10;99.90
25214;DHT22;13160;51.834;4.706;2023-05-09T09:21:00;16.10;99.90
25214;DHT22;13160;51.834;4.706;2023-05-09T09:23:36;16.10;99.90
25214;DHT22;13160;51.834;4.706;2023-05-09T09:26:07;16.20;99.90
25214;DHT22;13160;51.834;4.706;2023-05-09T09:28:35;16.20;99.90
25214;DHT22;13160;51.834;4.706;2023-05-09T09:31:18;16.10;99.90
25214;DHT22;13160;51.834;4.706;2023-05-09T09:33:47;16.20;99.90
25214;DHT22;13160;51.834;4.706;2023-05-09T09:36:21;16.20;99.90
25214;DHT22;13160;51.834;4.706;2023-05-09T09:38:57;16.20;99.90
25214;DHT22;13160;51.834;4.706;2023-05-09T09:41:31;16.20;99.90
25214;DHT22;13160;51.834;4.706;2023-05-09T09:44:06;16.20;99.90
25214;DHT22;13160;51.834;4.706;2023-05-09T09:46:41;16.20;99.90
25214;DHT22;13160;51.834;4.706;2023-05-09T09:49:11;16.10;99.90
25214;DHT22;13160;51.834;4.706;2023-05-09T09:51:40;16.10;99.90
25214;DHT22;13160;51.834;4.706;2023-05-09T09:54:11;16.20;99.90
25214;DHT22;13160;51.834;4.706;2023-05-09T09:56:43;16.20;99.90
25214;DHT22;13160;51.834;4.706;2023-05-09T09:59:14;16.20;99.90
25214;DHT22;13160;51.834;4.706;2023-05-09T10:01:57;16.10;99.90
25214;DHT22;13160;51.834;4.706;2023-05-09T10:04:29;16.20;99.90
25214;DHT22;13160;51.834;4.706;2023-05-09T10:07:00;16.20;99.90
25214;DHT22;13160;51.834;4.706;2023-05-09T10:09:33;16.20;99.90
25214;DHT22;13160;51.834;4.706;2023-05-09T10:12:05;16.20;99.90
25214;DHT22;13160;51.834;4.706;2023-05-09T10:14:36;16.30;99.90
25214;DHT22;13160;51.834;4.706;2023-05-09T10:17:05;16.30;99.90
25214;DHT22;13160;51.834;4.706;2023-05-09T10:19:35;16.20;99.90
25214;DHT22;13160;51.834;4.706;2023-05-09T10:22:08;16.30;99.90
25214;DHT22;13160;51.834;4.706;2023-05-09T10:24:44;16.30;99.90
25214;DHT22;13160;51.834;4.706;2023-05-09T10:27:20;16.30;99.90
25214;DHT22;13160;51.834;4.706;2023-05-09T10:29:53;16.30;99.90
25214;DHT22;13160;51.834;4.706;2023-05-09T10:32:32;16.30;99.90
25214;DHT22;13160;51.834;4.706;2023-05-09T10:35:09;16.30;99.90
25214;DHT22;13160;51.834;4.706;2023-05-09T10:37:41;16.30;99.90
25214;DHT22;13160;51.834;4.706;2023-05-09T10:40:11;16.30;99.90
25214;DHT22;13160;51.834;4.706;2023-05-09T10:42:41;16.40;99.90
25214;DHT22;13160;51.834;4.706;2023-05-09T10:45:10;16.40;99.90
25214;DHT22;13160;51.834;4.706;2023-05-09T10:47:41;16.40;99.90
25214;DHT22;13160;51.834;4.706;2023-05-09T10:50:11;16.50;99.90
25214;DHT22;13160;51.834;4.706;2023-05-09T10:53:06;16.50;99.90
25214;DHT22;13160;51.834;4.706;2023-05-09T10:55:48;16.50;99.90
25214;DHT22;13160;51.834;4.706;2023-05-09T10:58:19;16.50;99.90
25214;DHT22;13160;51.834;4.706;2023-05-09T11:00:58;16.50;99.90
25214;DHT22;13160;51.834;4.706;2023-05-09T11:03:28;16.60;99.90
25214;DHT22;13160;51.834;4.706;2023-05-09T11:06:39;16.60;99.90
25214;DHT22;13160;51.834;4.706;2023-05-09T11:09:23;16.70;99.90
25214;DHT22;13160;51.834;4.706;2023-05-09T11:11:56;16.70;99.90
25214;DHT22;13160;51.834;4.706;2023-05-09T11:14:30;16.70;99.90
25214;DHT22;13160;51.834;4.706;2023-05-09T11:17:00;16.70;99.90
25214;DHT22;13160;51.834;4.706;2023-05-09T11:19:37;16.80;99.90
25214;DHT22;13160;51.834;4.706;2023-05-09T11:22:25;16.80;99.90
25214;DHT22;13160;51.834;4.706;2023-05-09T11:25:01;16.80;99.90
25214;DHT22;13160;51.834;4.706;2023-05-09T11:27:43;16.80;99.90
25214;DHT22;13160;51.834;4.706;2023-05-09T11:30:15;16.90;99.90
25214;DHT22;13160;51.834;4.706;2023-05-09T11:32:46;16.80;99.90
25214;DHT22;13160;51.834;4.706;2023-05-09T11:35:18;16.80;99.90
25214;DHT22;13160;51.834;4.706;2023-05-09T11:37:48;16.80;99.90
25214;DHT22;13160;51.834;4.706;2023-05-09T11:40:19;16.80;99.90
25214;DHT22;13160;51.834;4.706;2023-05-09T11:42:50;16.80;99.90
25214;DHT22;13160;51.834;4.706;2023-05-09T11:45:25;16.80;99.90
25214;DHT22;13160;51.834;4.706;2023-05-09T11:47:54;16.80;99.90
25214;DHT22;13160;51.834;4.706;2023-05-09T11:50:24;16.80;99.90
25214;DHT22;13160;51.834;4.706;2023-05-09T11:52:53;16.80;99.90
25214;DHT22;13160;51.834;4.706;2023-05-09T11:55:21;16.80;99.90
25214;DHT22;13160;51.834;4.706;2023-05-09T11:57:53;16.80;99.90
25214;DHT22;13160;51.834;4.706;2023-05-09T12:00:23;16.80;99.90
25214;DHT22;13160;51.834;4.706;2023-05-09T12:02:52;16.80;99.90
25214;DHT22;13160;51.834;4.706;2023-05-09T12:05:21;16.80;99.90
25214;DHT22;13160;51.834;4.706;2023-05-09T12:07:50;16.70;99.90
25214;DHT22;13160;51.834;4.706;2023-05-09T12:10:20;16.70;99.90
25214;DHT22;13160;51.834;4.706;2023-05-09T12:12:52;16.70;99.90
25214;DHT22;13160;51.834;4.706;2023-05-09T12:15:21;16.70;99.90
25214;DHT22;13160;51.834;4.706;2023-05-09T12:18:00;16.70;99.90
25214;DHT22;13160;51.834;4.706;2023-05-09T12:20:40;16.60;99.90
25214;DHT22;13160;51.834;4.706;2023-05-09T12:23:13;16.70;99.90
25214;DHT22;13160;51.834;4.706;2023-05-09T12:25:51;16.60;99.90
25214;DHT22;13160;51.834;4.706;2023-05-09T12:28:23;16.70;99.90
25214;DHT22;13160;51.834;4.706;2023-05-09T12:30:53;16.60;99.90
25214;DHT22;13160;51.834;4.706;2023-05-09T12:33:22;16.60;99.90
25214;DHT22;13160;51.834;4.706;2023-05-09T12:36:01;16.60;99.90
25214;DHT22;13160;51.834;4.706;2023-05-09T12:38:31;16.60;99.90
25214;DHT22;13160;51.834;4.706;2023-05-09T12:41:00;16.60;99.90
25214;DHT22;13160;51.834;4.706;2023-05-09T12:43:32;16.60;99.90
25214;DHT22;13160;51.834;4.706;2023-05-09T12:46:02;16.60;99.90
25214;DHT22;13160;51.834;4.706;2023-05-09T12:48:36;16.60;99.90
25214;DHT22;13160;51.834;4.706;2023-05-09T12:51:06;16.60;99.90
25214;DHT22;13160;51.834;4.706;2023-05-09T12:53:37;16.60;99.90
25214;DHT22;13160;51.834;4.706;2023-05-09T12:56:11;16.60;99.90
25214;DHT22;13160;51.834;4.706;2023-05-09T12:58:49;16.60;99.90
25214;DHT22;13160;51.834;4.706;2023-05-09T13:01:18;16.60;99.90
25214;DHT22;13160;51.834;4.706;2023-05-09T13:03:51;16.60;99.90
25214;DHT22;13160;51.834;4.706;2023-05-09T13:06:19;16.70;99.90
25214;DHT22;13160;51.834;4.706;2023-05-09T13:08:56;16.70;99.90
25214;DHT22;13160;51.834;4.706;2023-05-09T13:11:28;16.70;99.90
25214;DHT22;13160;51.834;4.706;2023-05-09T13:13:58;16.70;99.90
25214;DHT22;13160;51.834;4.706;2023-05-09T13:16:28;16.70;99.90
25214;DHT22;13160;51.834;4.706;2023-05-09T13:18:57;16.70;99.90
25214;DHT22;13160;51.834;4.706;2023-05-09T13:21:27;16.70;99.90
25214;DHT22;13160;51.834;4.706;2023-05-09T13:23:55;16.70;99.90
25214;DHT22;13160;51.834;4.706;2023-05-09T13:26:24;16.60;99.90
25214;DHT22;13160;51.834;4.706;2023-05-09T13:28:53;16.60;99.90
25214;DHT22;13160;51.834;4.706;2023-05-09T13:31:22;16.60;99.90
25214;DHT22;13160;51.834;4.706;2023-05-09T13:33:51;16.60;99.90
25214;DHT22;13160;51.834;4.706;2023-05-09T13:36:19;16.70;99.90
25214;DHT22;13160;51.834;4.706;2023-05-09T13:38:48;16.60;99.90
25214;DHT22;13160;51.834;4.706;2023-05-09T13:41:16;16.60;99.90
25214;DHT22;13160;51.834;4.706;2023-05-09T13:43:48;16.70;99.90
25214;DHT22;13160;51.834;4.706;2023-05-09T13:46:16;16.70;99.90
25214;DHT22;13160;51.834;4.706;2023-05-09T13:48:46;16.60;99.90
25214;DHT22;13160;51.834;4.706;2023-05-09T13:51:15;16.70;99.90
25214;DHT22;13160;51.834;4.706;2023-05-09T13:53:43;16.60;99.90
25214;DHT22;13160;51.834;4.706;2023-05-09T13:56:43;16.60;99.90
25214;DHT22;13160;51.834;4.706;2023-05-09T13:59:14;16.60;99.90
25214;DHT22;13160;51.834;4.706;2023-05-09T14:01:43;16.60;99.90
25214;DHT22;13160;51.834;4.706;2023-05-09T14:04:13;16.50;99.90
25214;DHT22;13160;51.834;4.706;2023-05-09T14:06:41;16.50;99.90
25214;DHT22;13160;51.834;4.706;2023-05-09T14:09:14;16.50;99.90
25214;DHT22;13160;51.834;4.706;2023-05-09T14:11:42;16.50;99.90
25214;DHT22;13160;51.834;4.706;2023-05-09T14:14:11;16.50;99.90
25214;DHT22;13160;51.834;4.706;2023-05-09T14:16:40;16.50;99.90
25214;DHT22;13160;51.834;4.706;2023-05-09T14:19:08;16.50;99.90
25214;DHT22;13160;51.834;4.706;2023-05-09T14:21:38;16.60;99.90
25214;DHT22;13160;51.834;4.706;2023-05-09T14:24:07;16.60;99.90
25214;DHT22;13160;51.834;4.706;2023-05-09T14:26:36;16.60;99.90
25214;DHT22;13160;51.834;4.706;2023-05-09T14:29:04;16.60;99.90
25214;DHT22;13160;51.834;4.706;2023-05-09T14:31:33;16.60;99.90
25214;DHT22;13160;51.834;4.706;2023-05-09T14:34:01;16.60;99.90
25214;DHT22;13160;51.834;4.706;2023-05-09T14:36:32;16.50;99.90
25214;DHT22;13160;51.834;4.706;2023-05-09T14:39:01;16.60;99.90
25214;DHT22;13160;51.834;4.706;2023-05-09T14:41:31;16.60;99.90
25214;DHT22;13160;51.834;4.706;2023-05-09T14:43:59;16.50;99.90
25214;DHT22;13160;51.834;4.706;2023-05-09T14:46:28;16.50;99.90
25214;DHT22;13160;51.834;4.706;2023-05-09T14:48:56;16.50;99.90
25214;DHT22;13160;51.834;4.706;2023-05-09T14:51:29;16.50;99.90
25214;DHT22;13160;51.834;4.706;2023-05-09T14:54:00;16.50;99.90
25214;DHT22;13160;51.834;4.706;2023-05-09T14:56:30;16.50;99.90
25214;DHT22;13160;51.834;4.706;2023-05-09T14:58:59;16.50;99.90
25214;DHT22;13160;51.834;4.706;2023-05-09T15:01:29;16.50;99.90
25214;DHT22;13160;51.834;4.706;2023-05-09T15:03:57;16.50;99.90
25214;DHT22;13160;51.834;4.706;2023-05-09T15:06:26;16.50;99.90
25214;DHT22;13160;51.834;4.706;2023-05-09T15:08:56;16.60;99.90
25214;DHT22;13160;51.834;4.706;2023-05-09T15:11:25;16.60;99.90
25214;DHT22;13160;51.834;4.706;2023-05-09T15:13:56;16.60;99.90
25214;DHT22;13160;51.834;4.706;2023-05-09T15:16:24;16.60;99.90
25214;DHT22;13160;51.834;4.706;2023-05-09T15:18:53;16.60;99.90
25214;DHT22;13160;51.834;4.706;2023-05-09T15:21:22;16.60;99.90
25214;DHT22;13160;51.834;4.706;2023-05-09T15:23:50;16.60;99.90
25214;DHT22;13160;51.834;4.706;2023-05-09T15:26:18;16.60;99.90
25214;DHT22;13160;51.834;4.706;2023-05-09T15:28:48;16.60;99.90
25214;DHT22;13160;51.834;4.706;2023-05-09T15:31:16;16.50;99.90
25214;DHT22;13160;51.834;4.706;2023-05-09T15:33:47;16.50;99.90
25214;DHT22;13160;51.834;4.706;2023-05-09T15:36:15;16.50;99.90
25214;DHT22;13160;51.834;4.706;2023-05-09T15:38:44;16.40;99.90
25214;DHT22;13160;51.834;4.706;2023-05-09T15:41:15;16.40;99.90
25214;DHT22;13160;51.834;4.706;2023-05-09T15:43:44;16.40;99.90
25214;DHT22;13160;51.834;4.706;2023-05-09T15:46:14;16.40;99.90
25214;DHT22;13160;51.834;4.706;2023-05-09T15:48:42;16.40;99.90
25214;DHT22;13160;51.834;4.706;2023-05-09T15:51:11;16.40;99.90
25214;DHT22;13160;51.834;4.706;2023-05-09T15:53:39;16.40;99.90